Time;durP1;ratioP1;P1;durP2;ratioP2;P2;SDS_P1;SDS_P2;PMS_P1;PMS_P2;Temp;Humidity;BMP_temperature;BMP_pressure;BME280_temperature;BME280_humidity;BME280_pressure;Samples;Min_cycle;Max_cycle;Signal;HPM_P1;HPM_P2
2023/05/22 00:01:28;;;;;;;18.80;13.18;;;16.50;59.70;;;;;;4985161;28;114393;-80
2023/05/22 00:03:56;;;;;;;13.50;10.40;;;16.60;59.50;;;;;;4999393;28;114961;-80
2023/05/22 00:06:24;;;;;;;12.00;10.05;;;16.50;59.60;;;;;;4984650;28;114699;-80
2023/05/22 00:08:52;;;;;;;20.88;15.40;;;16.50;59.60;;;;;;4984822;28;114501;-80
2023/05/22 00:11:19;;;;;;;22.80;15.90;;;16.50;59.20;;;;;;4984957;28;114606;-80
2023/05/22 00:13:46;;;;;;;14.15;10.45;;;16.50;59.40;;;;;;4982545;28;114919;-80
2023/05/22 00:16:13;;;;;;;29.88;19.17;;;16.40;59.90;;;;;;4984211;28;115917;-80
2023/05/22 00:18:41;;;;;;;37.42;23.40;;;16.40;59.50;;;;;;4984923;28;115602;-80
2023/05/22 00:21:08;;;;;;;12.75;9.57;;;16.40;59.20;;;;;;4981180;28;114309;-80
2023/05/22 00:23:36;;;;;;;16.45;12.48;;;16.40;59.60;;;;;;4999380;28;114910;-80
2023/05/22 00:26:03;;;;;;;13.40;9.15;;;16.40;59.50;;;;;;4965524;28;114652;-80
2023/05/22 00:28:31;;;;;;;21.35;14.35;;;16.40;59.80;;;;;;4984865;28;114504;-80
2023/05/22 00:30:58;;;;;;;31.65;19.42;;;16.30;59.60;;;;;;5000527;28;114715;-79
2023/05/22 00:33:25;;;;;;;25.15;15.93;;;16.30;59.40;;;;;;4984122;28;114944;-80
2023/05/22 00:35:53;;;;;;;21.80;14.27;;;16.40;59.50;;;;;;4984111;28;114581;-79
2023/05/22 00:38:29;;;;;;;15.88;10.50;;;16.40;59.30;;;;;;4983121;28;114203;-80
2023/05/22 00:40:56;;;;;;;13.32;11.13;;;16.40;59.80;;;;;;5000000;28;114489;-79
2023/05/22 00:43:25;;;;;;;12.50;10.13;;;16.30;59.40;;;;;;4982639;28;115102;-80
2023/05/22 00:45:53;;;;;;;12.73;10.80;;;16.30;59.10;;;;;;4999302;28;115271;-80
2023/05/22 00:48:21;;;;;;;11.43;9.43;;;16.30;59.50;;;;;;4984446;28;114575;-79
2023/05/22 00:50:52;;;;;;;12.95;10.00;;;16.30;59.80;;;;;;4999671;28;114730;-79
2023/05/22 00:53:20;;;;;;;11.57;9.18;;;16.20;60.00;;;;;;4984018;28;114918;-80
2023/05/22 00:55:47;;;;;;;14.65;10.25;;;16.20;60.20;;;;;;4982639;28;114647;-80
2023/05/22 00:58:17;;;;;;;11.80;10.18;;;16.20;59.50;;;;;;4984468;28;114442;-79
2023/05/22 01:00:45;;;;;;;13.65;11.18;;;16.30;59.50;;;;;;4983441;28;114506;-79
2023/05/22 01:03:12;;;;;;;12.93;8.95;;;16.30;59.20;;;;;;4949129;28;115509;-80
2023/05/22 01:05:40;;;;;;;11.20;8.70;;;16.30;59.80;;;;;;4966063;28;116851;-80
2023/05/22 01:08:07;;;;;;;11.32;9.00;;;16.30;59.70;;;;;;4966522;28;116502;-79
2023/05/22 01:10:35;;;;;;;14.88;11.55;;;16.30;59.70;;;;;;4984318;28;114466;-79
2023/05/22 01:13:29;;;;;;;10.85;8.30;;;16.20;59.00;;;;;;4983027;28;116088;-79
2023/05/22 01:16:00;;;;;;;12.18;9.40;;;16.20;60.00;;;;;;4981573;28;115304;-79
2023/05/22 01:18:45;;;;;;;11.95;9.73;;;16.10;60.50;;;;;;4982720;28;114657;-79
2023/05/22 01:21:23;;;;;;;11.27;9.07;;;16.10;60.20;;;;;;4999780;28;114616;-79
2023/05/22 01:24:12;;;;;;;12.52;9.68;;;16.20;59.90;;;;;;4998491;28;116262;-79
2023/05/22 01:26:56;;;;;;;10.38;9.27;;;16.20;59.40;;;;;;4997824;28;114684;-79
2023/05/22 01:29:23;;;;;;;13.63;9.00;;;16.10;60.20;;;;;;4998356;28;114586;-79
2023/05/22 01:31:50;;;;;;;12.55;9.02;;;16.10;60.20;;;;;;4983719;28;114574;-79
2023/05/22 01:34:17;;;;;;;10.48;8.50;;;16.10;59.90;;;;;;4997634;28;115228;-79
2023/05/22 01:36:45;;;;;;;12.88;8.77;;;16.20;60.20;;;;;;4980788;28;115335;-79
2023/05/22 01:39:12;;;;;;;10.18;8.63;;;16.20;59.90;;;;;;4966204;28;114387;-79
2023/05/22 01:41:39;;;;;;;12.55;8.80;;;16.10;59.70;;;;;;4949877;28;114498;-79
2023/05/22 01:44:06;;;;;;;12.48;8.90;;;16.20;60.20;;;;;;4981398;28;114890;-79
2023/05/22 01:46:33;;;;;;;11.35;9.13;;;16.20;59.60;;;;;;4982678;28;114755;-79
2023/05/22 01:49:01;;;;;;;11.68;8.93;;;16.20;59.00;;;;;;4983637;28;114508;-79
2023/05/22 01:51:37;;;;;;;12.35;9.00;;;16.20;59.40;;;;;;4983403;28;114712;-79
2023/05/22 01:54:29;;;;;;;13.38;8.65;;;16.20;59.90;;;;;;4997514;28;115196;-79
2023/05/22 01:57:06;;;;;;;10.55;8.20;;;16.20;59.80;;;;;;4982269;28;114695;-79
2023/05/22 01:59:48;;;;;;;11.13;8.50;;;16.10;59.80;;;;;;4949512;28;116666;-79
2023/05/22 02:02:17;;;;;;;11.23;7.93;;;16.10;59.60;;;;;;4949537;28;114451;-79
2023/05/22 02:04:47;;;;;;;13.52;8.98;;;16.00;60.00;;;;;;4982620;28;115059;-79
2023/05/22 02:07:14;;;;;;;11.70;8.10;;;16.00;59.80;;;;;;4998012;28;114730;-80
2023/05/22 02:09:42;;;;;;;9.88;8.18;;;16.00;60.40;;;;;;4998696;28;114466;-80
2023/05/22 02:12:11;;;;;;;10.70;8.40;;;16.00;60.40;;;;;;4966434;28;114385;-79
2023/05/22 02:14:40;;;;;;;9.75;7.95;;;16.00;60.50;;;;;;4997909;28;115996;-80
2023/05/22 02:17:07;;;;;;;11.10;8.65;;;16.00;60.00;;;;;;4981504;28;115203;-79
2023/05/22 02:19:34;;;;;;;12.50;8.43;;;15.90;58.90;;;;;;4981598;28;114657;-79
2023/05/22 02:22:05;;;;;;;10.77;8.30;;;16.00;59.70;;;;;;4982245;28;114685;-80
2023/05/22 02:24:35;;;;;;;13.70;9.15;;;16.00;59.80;;;;;;4981267;28;115169;-80
2023/05/22 02:27:03;;;;;;;11.75;8.23;;;16.00;58.40;;;;;;4964744;28;114734;-79
2023/05/22 02:29:31;;;;;;;10.70;8.32;;;16.00;59.10;;;;;;4981762;28;114343;-79
2023/05/22 02:31:58;;;;;;;11.52;8.50;;;15.90;58.70;;;;;;4966697;28;114495;-80
2023/05/22 02:34:30;;;;;;;10.02;7.45;;;15.90;58.30;;;;;;4980607;28;116208;-80
2023/05/22 02:36:58;;;;;;;11.73;8.38;;;15.90;60.10;;;;;;4965740;28;114651;-79
2023/05/22 02:39:26;;;;;;;11.25;8.55;;;15.80;59.00;;;;;;4997741;28;114202;-80
2023/05/22 02:41:53;;;;;;;11.35;8.27;;;15.80;59.00;;;;;;4991133;28;114778;-80
2023/05/22 02:44:20;;;;;;;10.57;8.32;;;15.80;59.10;;;;;;4964520;28;115893;-80
2023/05/22 02:46:48;;;;;;;10.70;8.80;;;15.80;59.50;;;;;;4980927;28;115145;-80
2023/05/22 02:49:15;;;;;;;11.32;8.13;;;15.80;59.20;;;;;;4983586;28;114584;-80
2023/05/22 02:51:46;;;;;;;11.63;8.40;;;15.80;58.30;;;;;;4952522;28;114629;-81
2023/05/22 02:54:14;;;;;;;10.00;8.10;;;15.80;59.40;;;;;;4985613;28;116881;-80
2023/05/22 02:56:44;;;;;;;11.20;8.13;;;15.80;59.50;;;;;;4976367;28;114678;-80
2023/05/22 02:59:11;;;;;;;11.30;8.32;;;15.80;59.00;;;;;;4986883;28;114387;-80
2023/05/22 03:01:39;;;;;;;12.43;8.75;;;15.70;58.20;;;;;;4987033;28;114756;-80
2023/05/22 03:04:06;;;;;;;10.90;8.40;;;15.70;59.30;;;;;;4985059;28;114951;-79
2023/05/22 03:06:34;;;;;;;9.45;7.40;;;15.70;59.80;;;;;;4986927;28;114467;-79
2023/05/22 03:09:03;;;;;;;10.30;7.97;;;15.70;59.80;;;;;;4985106;28;114659;-79
2023/05/22 03:11:31;;;;;;;11.60;8.15;;;15.80;59.90;;;;;;5001100;28;114704;-79
2023/05/22 03:13:58;;;;;;;9.95;7.63;;;15.80;59.80;;;;;;4985629;28;115018;-79
2023/05/22 03:16:25;;;;;;;11.02;8.15;;;15.80;59.50;;;;;;4984297;28;114777;-80
2023/05/22 03:19:09;;;;;;;12.15;8.27;;;15.80;59.40;;;;;;4985167;28;114454;-80
2023/05/22 03:21:37;;;;;;;12.57;8.13;;;15.80;58.80;;;;;;5001707;28;114801;-80
2023/05/22 03:24:05;;;;;;;10.68;7.50;;;15.70;59.30;;;;;;4981069;28;115611;-79
2023/05/22 03:26:32;;;;;;;9.98;7.28;;;15.90;59.70;;;;;;5001010;28;114644;-80
2023/05/22 03:29:02;;;;;;;14.32;8.48;;;16.20;59.40;;;;;;4984846;28;114615;-79
2023/05/22 03:31:31;;;;;;;10.10;7.18;;;16.40;58.90;;;;;;4968200;28;114635;-80
2023/05/22 03:34:10;;;;;;;10.60;7.35;;;16.70;58.40;;;;;;4968037;28;114902;-81
2023/05/22 03:36:38;;;;;;;9.45;7.10;;;17.00;57.10;;;;;;4983786;28;114572;-81
2023/05/22 03:39:05;;;;;;;9.95;7.38;;;17.30;57.00;;;;;;5000860;28;114328;-81
2023/05/22 03:41:37;;;;;;;8.35;7.10;;;17.50;55.80;;;;;;5000761;28;114485;-81
2023/05/22 03:44:06;;;;;;;12.98;7.90;;;17.70;55.70;;;;;;4999908;28;115262;-81
2023/05/22 03:46:33;;;;;;;12.77;7.93;;;17.80;54.60;;;;;;4984734;28;114733;-81
2023/05/22 03:49:00;;;;;;;11.07;6.78;;;18.00;53.40;;;;;;4984146;28;114550;-81
2023/05/22 03:51:27;;;;;;;11.38;7.55;;;18.20;54.50;;;;;;4985375;28;119812;-81
2023/05/22 03:53:56;;;;;;;10.00;7.35;;;18.30;52.70;;;;;;4999529;28;116071;-81
2023/05/22 03:56:23;;;;;;;11.65;8.15;;;18.20;53.30;;;;;;5000257;28;114788;-81
2023/05/22 03:58:50;;;;;;;14.63;8.30;;;18.30;52.30;;;;;;4983497;28;114352;-81
2023/05/22 04:01:17;;;;;;;9.52;7.43;;;18.20;52.10;;;;;;5001043;28;114368;-81
2023/05/22 04:03:44;;;;;;;12.77;7.88;;;18.10;52.20;;;;;;4984851;28;114935;-81
2023/05/22 04:06:12;;;;;;;13.35;7.68;;;18.10;52.50;;;;;;4967122;28;115019;-81
2023/05/22 04:08:39;;;;;;;10.95;7.68;;;18.10;52.10;;;;;;4985300;28;114451;-81
2023/05/22 04:11:09;;;;;;;8.70;6.93;;;18.10;52.30;;;;;;4984442;28;114608;-80
2023/05/22 04:13:36;;;;;;;12.00;6.72;;;18.20;52.70;;;;;;4983433;28;115046;-81
2023/05/22 04:16:04;;;;;;;11.43;7.10;;;18.20;51.90;;;;;;5000167;28;114718;-81
2023/05/22 04:18:31;;;;;;;10.55;6.90;;;18.30;51.60;;;;;;4984956;28;114501;-81
2023/05/22 04:20:58;;;;;;;10.40;6.78;;;18.30;51.50;;;;;;4967565;28;114416;-81
2023/05/22 04:23:25;;;;;;;10.70;6.72;;;18.30;52.30;;;;;;4983592;28;115518;-82
2023/05/22 04:25:54;;;;;;;10.45;6.47;;;18.40;51.70;;;;;;4983453;28;114723;-81
2023/05/22 04:28:21;;;;;;;9.40;6.72;;;18.40;51.10;;;;;;4983855;28;114275;-81
2023/05/22 04:30:48;;;;;;;11.18;6.80;;;18.40;51.10;;;;;;4985163;28;116361;-81
2023/05/22 04:33:17;;;;;;;14.73;7.35;;;18.40;51.00;;;;;;4983742;28;115064;-81
2023/05/22 04:35:44;;;;;;;10.88;6.88;;;18.40;51.00;;;;;;4982312;28;114736;-81
2023/05/22 04:38:12;;;;;;;11.55;7.30;;;18.30;52.40;;;;;;4983688;28;114478;-81
2023/05/22 04:40:39;;;;;;;13.85;7.70;;;18.40;51.50;;;;;;4967495;28;114627;-82
2023/05/22 04:43:07;;;;;;;11.85;7.45;;;18.40;51.40;;;;;;4982201;28;114884;-80
2023/05/22 04:45:34;;;;;;;11.93;7.35;;;18.40;51.30;;;;;;4976937;28;115248;-79
2023/05/22 04:48:01;;;;;;;10.98;7.28;;;18.50;51.40;;;;;;4984135;28;114478;-79
2023/05/22 04:50:34;;;;;;;11.95;6.90;;;18.50;51.40;;;;;;4999200;28;114498;-78
2023/05/22 04:53:05;;;;;;;11.57;8.30;;;18.50;51.30;;;;;;4982230;28;115382;-79
2023/05/22 04:55:32;;;;;;;13.40;7.90;;;18.50;51.40;;;;;;4982787;28;117549;-79
2023/05/22 04:58:00;;;;;;;13.93;8.20;;;18.60;51.40;;;;;;4999650;28;114274;-78
2023/05/22 05:00:28;;;;;;;10.60;7.30;;;18.70;51.30;;;;;;4980720;28;114369;-79
2023/05/22 05:02:56;;;;;;;10.25;6.70;;;18.80;51.90;;;;;;4982163;28;114813;-79
2023/05/22 05:05:24;;;;;;;12.40;7.05;;;18.80;51.30;;;;;;4981954;28;114643;-79
2023/05/22 05:07:53;;;;;;;10.73;7.55;;;18.90;50.50;;;;;;4966798;28;114557;-79
2023/05/22 05:10:20;;;;;;;10.45;6.55;;;19.00;49.70;;;;;;4981834;28;114582;-79
2023/05/22 05:12:47;;;;;;;13.60;7.50;;;19.10;49.80;;;;;;4980233;28;115588;-79
2023/05/22 05:15:15;;;;;;;9.82;6.40;;;19.20;49.30;;;;;;4982177;28;115146;-80
2023/05/22 05:17:42;;;;;;;10.40;6.55;;;19.30;49.10;;;;;;4982608;28;114648;-80
2023/05/22 05:20:13;;;;;;;9.65;6.13;;;19.40;48.60;;;;;;4981861;28;114543;-80
2023/05/22 05:22:42;;;;;;;8.57;5.65;;;19.40;48.50;;;;;;4982079;28;115515;-80
2023/05/22 05:25:11;;;;;;;10.25;6.20;;;19.50;48.60;;;;;;4965479;28;115182;-79
2023/05/22 05:27:39;;;;;;;8.82;6.25;;;19.40;47.90;;;;;;4966592;28;114312;-79
2023/05/22 05:30:07;;;;;;;9.85;6.10;;;19.50;48.60;;;;;;4966902;28;114515;-80
2023/05/22 05:32:49;;;;;;;11.85;6.38;;;19.60;48.40;;;;;;4966703;28;117269;-80
2023/05/22 05:35:30;;;;;;;8.65;5.60;;;19.60;48.20;;;;;;4981978;28;114735;-79
2023/05/22 05:38:03;;;;;;;8.18;5.85;;;19.70;48.20;;;;;;4983249;28;114338;-79
2023/05/22 05:40:32;;;;;;;10.00;6.03;;;19.90;47.80;;;;;;4982600;28;114711;-80
2023/05/22 05:43:02;;;;;;;10.15;6.05;;;20.00;48.00;;;;;;4981231;28;115503;-79
2023/05/22 05:45:32;;;;;;;9.10;5.80;;;20.10;47.50;;;;;;4949554;28;117907;-80
2023/05/22 05:48:01;;;;;;;10.05;5.65;;;20.20;47.00;;;;;;4997049;28;114496;-80
2023/05/22 05:50:29;;;;;;;9.10;5.20;;;20.30;46.40;;;;;;4981695;28;114513;-79
2023/05/22 05:52:57;;;;;;;10.77;5.22;;;20.40;46.60;;;;;;4996480;28;114871;-79
2023/05/22 05:55:26;;;;;;;10.48;5.78;;;20.60;46.20;;;;;;4981837;28;114560;-79
2023/05/22 05:57:54;;;;;;;10.35;5.30;;;20.70;46.30;;;;;;4980982;28;114622;-79
2023/05/22 06:00:35;;;;;;;8.02;5.05;;;20.80;46.50;;;;;;4979204;28;114557;-79
2023/05/22 06:03:03;;;;;;;8.40;4.72;;;21.10;45.80;;;;;;4979434;28;114898;-79
2023/05/22 06:05:53;;;;;;;6.63;4.55;;;21.30;45.30;;;;;;4993078;28;115067;-81
2023/05/22 06:08:33;;;;;;;7.72;5.10;;;21.40;44.20;;;;;;4997666;28;114505;-80
2023/05/22 06:11:01;;;;;;;7.93;5.15;;;21.70;44.50;;;;;;4980485;28;114618;-79
2023/05/22 06:13:32;;;;;;;8.63;5.18;;;21.80;43.60;;;;;;4948063;28;118192;-80
2023/05/22 06:16:00;;;;;;;6.78;4.78;;;21.80;43.10;;;;;;4996459;28;115884;-81
2023/05/22 06:18:31;;;;;;;8.27;4.88;;;21.90;42.70;;;;;;4981470;28;114478;-80
2023/05/22 06:20:59;;;;;;;10.00;5.55;;;22.10;42.80;;;;;;4997830;28;114450;-80
2023/05/22 06:23:27;;;;;;;8.98;5.25;;;22.10;43.10;;;;;;4982480;28;114942;-80
2023/05/22 06:25:56;;;;;;;8.63;5.05;;;22.20;42.40;;;;;;4998900;28;114689;-80
2023/05/22 06:28:25;;;;;;;10.88;5.80;;;22.20;42.30;;;;;;4984352;28;114338;-81
2023/05/22 06:30:52;;;;;;;8.70;5.65;;;22.10;42.20;;;;;;5000996;28;114843;-79
2023/05/22 06:33:22;;;;;;;7.60;5.43;;;21.80;42.00;;;;;;4955796;28;117305;-79
2023/05/22 06:35:50;;;;;;;8.77;6.03;;;21.60;42.10;;;;;;4966745;28;114609;-79
2023/05/22 06:38:17;;;;;;;9.50;5.43;;;21.50;42.40;;;;;;5000706;28;114535;-78
2023/05/22 06:40:45;;;;;;;11.40;6.00;;;21.30;42.40;;;;;;4985728;28;114507;-79
2023/05/22 06:43:21;;;;;;;9.05;5.93;;;21.10;43.30;;;;;;5000180;28;114867;-81
2023/05/22 06:45:53;;;;;;;9.05;5.63;;;21.10;44.30;;;;;;5000525;28;114818;-80
2023/05/22 06:48:23;;;;;;;8.65;6.43;;;21.20;44.50;;;;;;4984348;28;115621;-79
2023/05/22 06:51:00;;;;;;;10.38;5.95;;;21.30;44.80;;;;;;4952787;28;116079;-78
2023/05/22 06:53:28;;;;;;;9.90;6.18;;;21.40;44.70;;;;;;4999830;28;114892;-79
2023/05/22 06:55:56;;;;;;;10.10;5.97;;;21.60;44.30;;;;;;4984216;28;114631;-79
2023/05/22 06:58:42;;;;;;;9.90;5.93;;;21.70;44.30;;;;;;4965870;28;115226;-82
2023/05/22 07:01:18;;;;;;;10.20;6.40;;;21.70;44.40;;;;;;4966221;28;114405;-78
2023/05/22 07:04:03;;;;;;;8.52;5.20;;;21.80;44.20;;;;;;4976540;28;114897;-80
2023/05/22 07:06:37;;;;;;;8.50;5.50;;;21.70;44.00;;;;;;4966699;28;114709;-80
2023/05/22 07:09:07;;;;;;;10.23;6.03;;;21.60;43.80;;;;;;4968819;28;114445;-79
2023/05/22 07:11:36;;;;;;;9.43;5.45;;;21.50;43.70;;;;;;5001116;28;114372;-79
2023/05/22 07:14:04;;;;;;;8.52;5.32;;;21.60;43.40;;;;;;4985315;28;115446;-79
2023/05/22 07:16:31;;;;;;;8.52;4.75;;;21.60;43.10;;;;;;4976081;28;116109;-80
2023/05/22 07:19:01;;;;;;;9.73;5.40;;;21.60;43.30;;;;;;4977172;28;114598;-80
2023/05/22 07:21:30;;;;;;;10.07;5.93;;;21.60;43.50;;;;;;4985124;28;114482;-79
2023/05/22 07:23:58;;;;;;;10.07;5.70;;;21.70;43.70;;;;;;4983653;28;118828;-79
2023/05/22 07:26:26;;;;;;;9.02;5.60;;;21.80;43.30;;;;;;4999917;28;114665;-80
2023/05/22 07:29:04;;;;;;;8.40;5.30;;;21.80;42.90;;;;;;4993861;28;116273;-80
2023/05/22 07:31:35;;;;;;;9.65;4.88;;;21.70;43.20;;;;;;4983420;28;116059;-81
2023/05/22 07:34:04;;;;;;;8.40;4.90;;;21.60;43.40;;;;;;4983280;28;115508;-80
2023/05/22 07:36:33;;;;;;;8.38;4.70;;;21.70;43.00;;;;;;4967916;28;114840;-79
2023/05/22 07:39:01;;;;;;;6.68;4.82;;;21.60;42.30;;;;;;4985330;28;114437;-79
2023/05/22 07:41:31;;;;;;;7.40;4.93;;;21.50;42.60;;;;;;5001808;28;114590;-79
2023/05/22 07:43:58;;;;;;;8.27;4.82;;;21.40;42.80;;;;;;4973987;28;114951;-79
2023/05/22 07:46:34;;;;;;;8.45;4.47;;;21.40;42.90;;;;;;4967030;28;117032;-79
2023/05/22 07:49:19;;;;;;;8.25;4.95;;;21.40;42.80;;;;;;4984712;28;114462;-80
2023/05/22 07:51:46;;;;;;;8.27;4.93;;;21.30;43.30;;;;;;4983333;28;114392;-79
2023/05/22 07:54:17;;;;;;;8.88;4.95;;;21.20;43.30;;;;;;4972579;28;115070;-79
2023/05/22 07:56:48;;;;;;;8.90;4.68;;;21.20;42.80;;;;;;4983589;28;114579;-80
2023/05/22 07:59:18;;;;;;;7.65;4.45;;;21.10;42.70;;;;;;4967714;28;114621;-80
2023/05/22 08:01:45;;;;;;;9.07;4.50;;;21.00;43.10;;;;;;4986456;28;114522;-80
2023/05/22 08:04:12;;;;;;;9.88;4.65;;;21.00;43.70;;;;;;4984788;28;114794;-79
2023/05/22 08:06:42;;;;;;;8.88;4.88;;;21.00;43.80;;;;;;4972867;28;115061;-80
2023/05/22 08:09:09;;;;;;;6.72;4.50;;;20.90;43.60;;;;;;4982389;28;114536;-79
2023/05/22 08:11:38;;;;;;;10.95;4.78;;;20.80;43.90;;;;;;4980298;28;114455;-79
2023/05/22 08:14:06;;;;;;;6.63;4.70;;;20.80;44.20;;;;;;4983374;28;119338;-79
2023/05/22 08:16:34;;;;;;;9.00;4.40;;;20.70;43.80;;;;;;4984378;28;114857;-79
2023/05/22 08:19:05;;;;;;;8.68;4.75;;;20.60;43.90;;;;;;5000042;28;114787;-79
2023/05/22 08:21:33;;;;;;;9.60;4.90;;;20.50;43.90;;;;;;4984385;28;115276;-79
2023/05/22 08:24:00;;;;;;;9.48;4.72;;;20.40;44.10;;;;;;4984172;28;115489;-79
2023/05/22 08:26:28;;;;;;;8.63;4.68;;;20.50;44.20;;;;;;4983141;28;115221;-79
2023/05/22 08:28:59;;;;;;;10.77;4.50;;;20.60;43.80;;;;;;4985195;28;114438;-79
2023/05/22 08:31:29;;;;;;;8.55;4.28;;;20.60;43.70;;;;;;4985657;28;114203;-79
2023/05/22 08:34:01;;;;;;;7.68;4.57;;;20.70;44.10;;;;;;4984188;28;114952;-79
2023/05/22 08:36:30;;;;;;;7.88;4.40;;;20.70;44.20;;;;;;4984832;28;114638;-79
2023/05/22 08:38:57;;;;;;;7.68;4.45;;;20.70;44.00;;;;;;4985179;28;114973;-80
2023/05/22 08:41:25;;;;;;;7.97;4.68;;;20.70;44.20;;;;;;4985544;28;114638;-80
2023/05/22 08:43:52;;;;;;;9.90;4.45;;;20.70;44.30;;;;;;4983506;28;115293;-80
2023/05/22 08:46:20;;;;;;;11.38;5.10;;;20.80;44.00;;;;;;4984426;28;114686;-80
2023/05/22 08:48:48;;;;;;;7.28;4.40;;;20.80;43.90;;;;;;4983760;28;114589;-80
2023/05/22 08:51:17;;;;;;;7.43;4.45;;;20.80;43.60;;;;;;4984525;28;114474;-80
2023/05/22 08:53:45;;;;;;;6.75;4.25;;;20.70;43.20;;;;;;4979723;28;115190;-80
2023/05/22 08:56:12;;;;;;;7.95;4.40;;;20.80;43.60;;;;;;4965687;28;114668;-80
2023/05/22 08:58:40;;;;;;;6.25;4.70;;;20.80;43.10;;;;;;4967027;28;114530;-81
2023/05/22 09:01:07;;;;;;;9.82;4.15;;;20.80;43.20;;;;;;4985195;28;114598;-80
2023/05/22 09:03:37;;;;;;;8.02;4.47;;;20.80;43.30;;;;;;4982322;28;115236;-80
2023/05/22 09:06:09;;;;;;;7.95;4.40;;;20.90;43.40;;;;;;4982762;28;115726;-80
2023/05/22 09:08:37;;;;;;;7.53;3.85;;;20.90;42.30;;;;;;4984028;28;114301;-80
2023/05/22 09:11:04;;;;;;;6.13;3.80;;;20.90;42.90;;;;;;4982996;28;114692;-80
2023/05/22 09:13:34;;;;;;;6.95;4.22;;;21.00;42.60;;;;;;4983433;28;117636;-81
2023/05/22 09:16:09;;;;;;;7.05;3.83;;;20.90;42.40;;;;;;4982858;28;114679;-80
2023/05/22 09:18:38;;;;;;;7.03;4.32;;;21.00;41.90;;;;;;4984253;28;114238;-81
2023/05/22 09:21:05;;;;;;;6.43;3.92;;;21.10;41.80;;;;;;4984483;28;114506;-80
2023/05/22 09:23:51;;;;;;;8.15;3.92;;;21.10;42.00;;;;;;4998560;28;116148;-80
2023/05/22 09:26:18;;;;;;;8.50;3.97;;;21.20;41.30;;;;;;4983468;28;114652;-80
2023/05/22 09:28:48;;;;;;;9.18;4.25;;;21.20;40.80;;;;;;4983305;28;114493;-80
2023/05/22 09:31:16;;;;;;;7.93;3.92;;;21.20;40.80;;;;;;4982999;28;114523;-80
2023/05/22 09:33:43;;;;;;;7.20;4.28;;;21.20;40.80;;;;;;4982821;28;116135;-80
2023/05/22 09:36:11;;;;;;;7.28;3.80;;;21.20;41.10;;;;;;4982190;28;116151;-80
2023/05/22 09:38:38;;;;;;;8.98;3.85;;;21.20;40.60;;;;;;4982321;28;114359;-79
2023/05/22 09:41:05;;;;;;;7.78;4.32;;;21.20;40.40;;;;;;4983895;28;114285;-80
2023/05/22 09:43:55;;;;;;;7.20;3.70;;;21.20;40.60;;;;;;4996567;28;114658;-80
2023/05/22 09:47:06;;;;;;;5.57;3.67;;;21.30;39.50;;;;;;4922599;28;114748;-80
2023/05/22 09:49:40;;;;;;;8.80;4.63;;;21.30;40.50;;;;;;4925421;28;114770;-80
2023/05/22 09:52:08;;;;;;;5.95;4.10;;;21.40;39.90;;;;;;4942160;28;116279;-79
2023/05/22 09:54:36;;;;;;;7.60;4.00;;;21.50;40.10;;;;;;4920881;28;114991;-79
2023/05/22 09:57:03;;;;;;;6.22;4.00;;;21.60;39.90;;;;;;4900644;28;114637;-79
2023/05/22 09:59:32;;;;;;;15.80;4.68;;;21.60;39.90;;;;;;4909994;28;115443;-81
2023/05/22 10:02:00;;;;;;;24.88;4.97;;;21.70;39.70;;;;;;4893264;28;114511;-78
2023/05/22 10:04:29;;;;;;;8.68;4.07;;;21.80;39.80;;;;;;4962251;28;115229;-79
2023/05/22 10:06:56;;;;;;;6.65;3.65;;;21.80;39.20;;;;;;4966116;28;114698;-80
2023/05/22 10:09:25;;;;;;;10.90;4.00;;;21.80;38.80;;;;;;4982526;28;114316;-80
2023/05/22 10:11:55;;;;;;;8.18;3.85;;;21.70;38.50;;;;;;4995416;28;114368;-80
2023/05/22 10:14:25;;;;;;;9.00;3.92;;;21.70;39.00;;;;;;4978981;28;114970;-80
2023/05/22 10:16:55;;;;;;;9.35;3.78;;;21.70;39.20;;;;;;4982851;28;114728;-81
2023/05/22 10:19:25;;;;;;;10.45;3.90;;;21.80;39.40;;;;;;4978356;28;115846;-80
2023/05/22 10:21:54;;;;;;;6.35;4.18;;;21.90;38.70;;;;;;4962264;28;114634;-80
2023/05/22 10:24:22;;;;;;;6.53;3.63;;;22.00;38.50;;;;;;4962758;28;117248;-81
2023/05/22 10:26:51;;;;;;;7.28;3.90;;;22.00;38.50;;;;;;4976664;28;115800;-80
2023/05/22 10:29:22;;;;;;;13.00;4.07;;;22.00;38.40;;;;;;4983828;28;114459;-80
2023/05/22 10:32:11;;;;;;;8.50;4.22;;;21.90;38.40;;;;;;4974412;28;114495;-80
2023/05/22 10:34:57;;;;;;;10.75;3.50;;;21.90;38.60;;;;;;4996401;28;114858;-79
2023/05/22 10:37:36;;;;;;;8.25;3.50;;;21.90;38.70;;;;;;4998849;28;114696;-79
2023/05/22 10:40:29;;;;;;;6.90;3.88;;;22.00;38.50;;;;;;4981057;28;114501;-80
2023/05/22 10:42:58;;;;;;;7.00;4.13;;;21.80;38.70;;;;;;4980011;28;114726;-81
2023/05/22 10:45:28;;;;;;;7.28;4.07;;;21.80;38.80;;;;;;4963895;28;116669;-80
2023/05/22 10:48:06;;;;;;;6.68;4.20;;;21.90;38.20;;;;;;4982783;28;115360;-80
2023/05/22 10:50:34;;;;;;;7.80;3.80;;;21.80;38.30;;;;;;4965532;28;114411;-80
2023/05/22 10:53:24;;;;;;;6.38;3.92;;;21.80;38.60;;;;;;4981511;28;114670;-80
2023/05/22 10:56:01;;;;;;;7.80;4.30;;;21.80;38.50;;;;;;4982749;28;115053;-80
2023/05/22 10:58:30;;;;;;;7.72;4.40;;;21.80;38.30;;;;;;4978233;28;115249;-80
2023/05/22 11:01:09;;;;;;;7.10;3.67;;;21.80;37.90;;;;;;4979588;28;114454;-80
2023/05/22 11:03:59;;;;;;;8.30;4.07;;;21.90;37.80;;;;;;4983594;28;114626;-80
2023/05/22 11:06:36;;;;;;;6.57;3.60;;;22.00;37.70;;;;;;4982329;28;115016;-81
2023/05/22 11:09:16;;;;;;;6.03;3.67;;;22.00;38.20;;;;;;4983096;28;114667;-81
2023/05/22 11:11:43;;;;;;;7.57;3.95;;;22.00;37.40;;;;;;4985436;28;115616;-81
2023/05/22 11:14:12;;;;;;;7.78;4.10;;;22.00;37.60;;;;;;5000161;28;114510;-80
2023/05/22 11:16:39;;;;;;;9.60;4.22;;;22.00;37.60;;;;;;4984052;28;114873;-81
2023/05/22 11:19:09;;;;;;;5.18;3.53;;;21.90;37.50;;;;;;4984317;28;114720;-79
2023/05/22 11:21:49;;;;;;;6.53;4.25;;;21.80;37.20;;;;;;4975542;28;115263;-80
2023/05/22 11:24:17;;;;;;;7.32;4.07;;;21.80;37.50;;;;;;4998472;28;114657;-80
2023/05/22 11:26:44;;;;;;;9.43;4.45;;;21.80;38.30;;;;;;5000872;28;114875;-80
2023/05/22 11:29:12;;;;;;;8.80;3.88;;;21.80;38.30;;;;;;4997786;28;115978;-80
2023/05/22 11:31:39;;;;;;;8.25;4.30;;;21.80;38.50;;;;;;4984290;28;114353;-80
2023/05/22 11:34:07;;;;;;;11.13;4.20;;;21.90;38.40;;;;;;4967657;28;114603;-80
2023/05/22 11:36:34;;;;;;;8.90;4.10;;;22.10;37.50;;;;;;4977967;28;115018;-80
2023/05/22 11:39:01;;;;;;;8.02;3.80;;;22.10;37.10;;;;;;4960034;28;114792;-81
2023/05/22 11:41:31;;;;;;;7.38;3.60;;;22.10;37.10;;;;;;4979371;28;114481;-81
2023/05/22 11:44:00;;;;;;;6.72;3.85;;;22.10;37.50;;;;;;4983649;28;114429;-80
2023/05/22 11:46:29;;;;;;;6.95;4.00;;;22.00;37.60;;;;;;4978849;28;115015;-81
2023/05/22 11:48:56;;;;;;;7.57;3.50;;;21.90;37.90;;;;;;4984821;28;114736;-81
2023/05/22 11:51:23;;;;;;;10.23;4.20;;;21.90;37.90;;;;;;4976604;28;114389;-80
2023/05/22 11:53:51;;;;;;;10.15;4.18;;;21.80;38.50;;;;;;4978539;28;114524;-80
2023/05/22 11:56:22;;;;;;;5.38;3.65;;;21.90;38.10;;;;;;4967185;28;115767;-80
2023/05/22 11:58:50;;;;;;;7.90;3.80;;;22.00;37.40;;;;;;4949975;28;114765;-80
2023/05/22 12:01:18;;;;;;;7.57;3.83;;;22.00;37.80;;;;;;4999553;28;114591;-80
2023/05/22 12:03:45;;;;;;;8.43;4.15;;;22.00;37.70;;;;;;4973930;28;114637;-81
2023/05/22 12:06:13;;;;;;;9.45;4.30;;;22.00;38.30;;;;;;4980802;28;115033;-81
2023/05/22 12:08:43;;;;;;;6.97;3.95;;;22.00;38.30;;;;;;4998210;28;114727;-80
2023/05/22 12:11:11;;;;;;;9.25;4.10;;;22.10;38.00;;;;;;4981100;28;114701;-81
2023/05/22 12:13:38;;;;;;;9.95;3.78;;;22.20;38.20;;;;;;4981109;28;114405;-80
2023/05/22 12:16:17;;;;;;;7.20;4.20;;;22.30;38.70;;;;;;4983756;28;115910;-80
2023/05/22 12:18:44;;;;;;;7.88;3.80;;;22.30;38.20;;;;;;5000076;28;114538;-80
2023/05/22 12:21:12;;;;;;;8.30;4.38;;;22.20;38.50;;;;;;4999577;28;114998;-80
2023/05/22 12:23:47;;;;;;;7.93;3.70;;;22.30;37.90;;;;;;4984401;28;114543;-80
2023/05/22 12:26:15;;;;;;;7.45;4.03;;;22.30;37.20;;;;;;4996376;28;114986;-80
2023/05/22 12:28:43;;;;;;;8.73;3.92;;;22.20;37.50;;;;;;4985613;28;118074;-81
2023/05/22 12:31:10;;;;;;;6.32;4.13;;;22.20;38.00;;;;;;4981648;28;114302;-80
2023/05/22 12:33:38;;;;;;;8.52;4.10;;;22.20;37.90;;;;;;4966444;28;114506;-80
2023/05/22 12:36:11;;;;;;;7.53;3.70;;;22.10;38.00;;;;;;4997692;28;115129;-82
2023/05/22 12:38:39;;;;;;;6.03;3.70;;;22.20;37.90;;;;;;4999615;28;115173;-80
2023/05/22 12:41:08;;;;;;;5.82;3.75;;;22.20;37.90;;;;;;5000545;28;114581;-80
2023/05/22 12:43:36;;;;;;;6.60;3.50;;;22.20;37.50;;;;;;4985545;28;115734;-80
2023/05/22 12:46:06;;;;;;;7.68;4.28;;;22.10;37.10;;;;;;4979953;28;114923;-80